Time;durP1;ratioP1;P1;durP2;ratioP2;P2;SDS_P1;SDS_P2;PMS_P1;PMS_P2;Temp;Humidity;BMP_temperature;BMP_pressure;BME280_temperature;BME280_humidity;BME280_pressure;Samples;Min_cycle;Max_cycle;Signal;HPM_P1;HPM_P2
2024/03/14 00:02:25;;;;;;;65.60;11.20;;;;;;;;;;5017272;28;20461;-69
2024/03/14 00:04:52;;;;;;;65.93;11.60;;;;;;;;;;5018968;28;20535;-69
2024/03/14 00:07:19;;;;;;;68.70;12.97;;;;;;;;;;5025809;28;20495;-69
2024/03/14 00:09:46;;;;;;;65.77;11.63;;;;;;;;;;5018375;28;20569;-69
2024/03/14 00:12:14;;;;;;;69.03;12.40;;;;;;;;;;5010671;28;20446;-69
2024/03/14 00:14:44;;;;;;;63.90;11.17;;;;;;;;;;5025940;28;20457;-69
2024/03/14 00:17:12;;;;;;;69.77;11.83;;;;;;;;;;5027139;28;20485;-69
2024/03/14 00:19:39;;;;;;;66.87;11.60;;;;;;;;;;5018792;28;20451;-69
2024/03/14 00:22:07;;;;;;;64.80;10.67;;;;;;;;;;5020667;28;20452;-69
2024/03/14 00:24:34;;;;;;;68.37;11.07;;;;;;;;;;5030396;28;20449;-68
2024/03/14 00:27:03;;;;;;;65.80;10.80;;;;;;;;;;5020245;28;20474;-70
2024/03/14 00:29:31;;;;;;;64.97;11.20;;;;;;;;;;5010385;28;20485;-70
2024/03/14 00:31:58;;;;;;;67.93;11.43;;;;;;;;;;5010279;28;20451;-70
2024/03/14 00:34:26;;;;;;;65.33;11.37;;;;;;;;;;5010382;28;20457;-70
2024/03/14 00:36:53;;;;;;;68.03;11.90;;;;;;;;;;5010112;28;20474;-71
2024/03/14 00:39:21;;;;;;;65.27;11.40;;;;;;;;;;5014498;28;20475;-69
2024/03/14 00:41:50;;;;;;;66.33;11.43;;;;;;;;;;5029746;28;20460;-71
2024/03/14 00:44:17;;;;;;;65.57;11.77;;;;;;;;;;5032676;28;20478;-69
2024/03/14 00:46:44;;;;;;;67.07;11.70;;;;;;;;;;5033561;28;20493;-69
2024/03/14 00:49:11;;;;;;;65.20;11.53;;;;;;;;;;5014261;28;20494;-69
2024/03/14 00:51:39;;;;;;;67.00;11.07;;;;;;;;;;5020413;28;20449;-69
2024/03/14 00:54:07;;;;;;;66.63;11.77;;;;;;;;;;5021514;28;20467;-69
2024/03/14 00:56:35;;;;;;;68.80;13.30;;;;;;;;;;5019450;28;20474;-69
2024/03/14 00:59:02;;;;;;;69.43;13.37;;;;;;;;;;5013786;28;20446;-69
2024/03/14 01:01:29;;;;;;;66.70;12.20;;;;;;;;;;5018626;28;20452;-69
2024/03/14 01:03:56;;;;;;;68.47;12.70;;;;;;;;;;5016504;28;20455;-69
2024/03/14 01:06:24;;;;;;;65.70;12.47;;;;;;;;;;5024006;28;20450;-69
2024/03/14 01:08:53;;;;;;;68.23;12.07;;;;;;;;;;5021454;28;20555;-69
2024/03/14 01:11:20;;;;;;;66.70;11.73;;;;;;;;;;5005729;28;20500;-69
2024/03/14 01:13:48;;;;;;;66.70;11.20;;;;;;;;;;5016622;28;20455;-68
2024/03/14 01:16:15;;;;;;;65.97;11.57;;;;;;;;;;5023902;28;20442;-69
2024/03/14 01:18:42;;;;;;;69.67;11.43;;;;;;;;;;5013399;28;20453;-69
2024/03/14 01:21:09;;;;;;;65.63;10.50;;;;;;;;;;5023837;28;20457;-69
2024/03/14 01:23:37;;;;;;;66.50;11.77;;;;;;;;;;5033248;28;20445;-69
2024/03/14 01:26:05;;;;;;;67.57;12.23;;;;;;;;;;5016756;28;20450;-69
2024/03/14 01:28:32;;;;;;;67.27;11.27;;;;;;;;;;5019603;28;20556;-70
2024/03/14 01:30:59;;;;;;;67.20;12.30;;;;;;;;;;5013858;28;20450;-69
2024/03/14 01:33:26;;;;;;;66.33;11.70;;;;;;;;;;5021241;28;20819;-69
2024/03/14 01:35:58;;;;;;;70.00;11.73;;;;;;;;;;5013390;28;20530;-69
2024/03/14 01:38:25;;;;;;;70.80;11.77;;;;;;;;;;5028216;28;20622;-69
2024/03/14 01:40:52;;;;;;;64.40;11.60;;;;;;;;;;5020763;28;20468;-69
2024/03/14 01:43:20;;;;;;;68.17;11.20;;;;;;;;;;5029136;28;20988;-69
2024/03/14 01:45:47;;;;;;;64.17;11.40;;;;;;;;;;5012888;28;20894;-69
2024/03/14 01:48:14;;;;;;;68.80;11.63;;;;;;;;;;5031749;28;20473;-69
2024/03/14 01:50:42;;;;;;;67.60;10.80;;;;;;;;;;5032510;28;20519;-69
2024/03/14 01:53:10;;;;;;;66.13;11.43;;;;;;;;;;5022479;28;20846;-69
2024/03/14 01:55:37;;;;;;;67.87;12.37;;;;;;;;;;5011457;28;20904;-69
2024/03/14 01:58:05;;;;;;;66.17;11.57;;;;;;;;;;5021737;28;20470;-69
2024/03/14 02:00:33;;;;;;;66.57;11.80;;;;;;;;;;5019255;28;20450;-69
2024/03/14 02:03:01;;;;;;;67.13;11.40;;;;;;;;;;5013308;28;20548;-69
2024/03/14 02:05:28;;;;;;;69.27;12.50;;;;;;;;;;5032417;28;20449;-69
2024/03/14 02:07:56;;;;;;;66.50;11.87;;;;;;;;;;5023692;28;20473;-69
2024/03/14 02:10:25;;;;;;;72.40;13.13;;;;;;;;;;5024008;28;20508;-69
2024/03/14 02:12:53;;;;;;;69.87;12.83;;;;;;;;;;5024397;28;20449;-69
2024/03/14 02:15:23;;;;;;;68.67;12.97;;;;;;;;;;5032158;28;20503;-69
2024/03/14 02:17:51;;;;;;;68.20;12.40;;;;;;;;;;5031967;28;20913;-69
2024/03/14 02:20:20;;;;;;;68.93;13.20;;;;;;;;;;5028958;28;20442;-69
2024/03/14 02:22:48;;;;;;;68.17;12.20;;;;;;;;;;5012195;28;20454;-69
2024/03/14 02:25:15;;;;;;;70.40;13.00;;;;;;;;;;5020455;28;20547;-69
2024/03/14 02:27:42;;;;;;;67.10;11.77;;;;;;;;;;5011895;28;20471;-69
2024/03/14 02:30:09;;;;;;;72.27;12.40;;;;;;;;;;5012222;28;20490;-69
2024/03/14 02:32:36;;;;;;;66.63;13.03;;;;;;;;;;5025629;28;20532;-69
2024/03/14 02:35:04;;;;;;;70.73;12.80;;;;;;;;;;5014349;28;20455;-69
2024/03/14 02:37:32;;;;;;;72.17;13.53;;;;;;;;;;5024370;28;20482;-68
2024/03/14 02:39:59;;;;;;;67.40;12.57;;;;;;;;;;5031227;28;20504;-69
2024/03/14 02:42:26;;;;;;;69.93;13.60;;;;;;;;;;5027698;28;20446;-68
2024/03/14 02:44:54;;;;;;;70.43;12.77;;;;;;;;;;5011817;28;20541;-68
2024/03/14 02:47:21;;;;;;;73.23;11.50;;;;;;;;;;5011549;28;20508;-69
2024/03/14 02:49:49;;;;;;;67.00;11.43;;;;;;;;;;5011501;28;20496;-69
2024/03/14 02:52:16;;;;;;;68.13;12.03;;;;;;;;;;5019538;28;20495;-69
2024/03/14 02:54:44;;;;;;;69.90;12.47;;;;;;;;;;5018229;28;20485;-69
2024/03/14 02:57:11;;;;;;;67.67;11.20;;;;;;;;;;5030812;28;20479;-69
2024/03/14 02:59:39;;;;;;;66.87;11.30;;;;;;;;;;5017743;28;20545;-69
2024/03/14 03:02:11;;;;;;;66.70;11.47;;;;;;;;;;5020343;28;20449;-69
2024/03/14 03:04:38;;;;;;;66.93;11.37;;;;;;;;;;5026071;28;20509;-70
2024/03/14 03:07:06;;;;;;;70.00;11.07;;;;;;;;;;5011131;28;20486;-70
2024/03/14 03:09:36;;;;;;;68.00;11.10;;;;;;;;;;5011365;28;21133;-70
2024/03/14 03:12:03;;;;;;;65.83;11.83;;;;;;;;;;5011750;28;20450;-69
2024/03/14 03:14:31;;;;;;;67.40;11.30;;;;;;;;;;5031166;28;20455;-69
2024/03/14 03:16:58;;;;;;;66.57;12.50;;;;;;;;;;5030811;28;20557;-69
2024/03/14 03:19:25;;;;;;;69.50;11.40;;;;;;;;;;5027436;28;20479;-69
2024/03/14 03:21:52;;;;;;;65.30;11.30;;;;;;;;;;5011191;28;20446;-69
2024/03/14 03:24:19;;;;;;;67.07;10.80;;;;;;;;;;5011329;28;20871;-69
2024/03/14 03:26:46;;;;;;;63.27;10.30;;;;;;;;;;5011189;28;20515;-69
2024/03/14 03:29:14;;;;;;;65.87;10.97;;;;;;;;;;5011075;28;20540;-70
2024/03/14 03:31:40;;;;;;;66.37;11.60;;;;;;;;;;5011048;28;20449;-69
2024/03/14 03:34:08;;;;;;;64.10;10.40;;;;;;;;;;5012015;28;20454;-69
2024/03/14 03:36:34;;;;;;;64.67;10.90;;;;;;;;;;5030360;28;20888;-69
2024/03/14 03:39:01;;;;;;;66.97;10.60;;;;;;;;;;5030437;28;20536;-70
2024/03/14 03:41:29;;;;;;;68.67;11.47;;;;;;;;;;5018936;28;20442;-69
2024/03/14 03:43:57;;;;;;;71.87;11.53;;;;;;;;;;5010973;28;20457;-69
2024/03/14 03:46:23;;;;;;;65.57;11.17;;;;;;;;;;5021878;28;20449;-69
2024/03/14 03:48:51;;;;;;;67.27;10.33;;;;;;;;;;5023652;28;20541;-69
2024/03/14 03:51:18;;;;;;;65.57;10.80;;;;;;;;;;5029179;28;20525;-69
2024/03/14 03:53:45;;;;;;;65.77;11.73;;;;;;;;;;5024236;28;20544;-69
2024/03/14 03:56:13;;;;;;;64.33;10.50;;;;;;;;;;5018902;28;20459;-69
2024/03/14 03:58:42;;;;;;;62.97;10.37;;;;;;;;;;5010656;28;20520;-69
2024/03/14 04:01:12;;;;;;;75.17;11.33;;;;;;;;;;5010585;28;20519;-69
2024/03/14 04:03:40;;;;;;;74.70;11.40;;;;;;;;;;5010660;28;20465;-69
2024/03/14 04:06:10;;;;;;;62.00;9.00;;;;;;;;;;5011104;28;20481;-69
2024/03/14 04:08:37;;;;;;;76.30;11.20;;;;;;;;;;5025624;28;20671;-69
2024/03/14 04:11:07;;;;;;;97.30;12.60;;;;;;;;;;5018594;28;20575;-69
2024/03/14 04:13:34;;;;;;;75.00;10.50;;;;;;;;;;5010738;28;20447;-69
2024/03/14 04:16:03;;;;;;;63.47;9.97;;;;;;;;;;5018657;28;20456;-69
2024/03/14 04:18:30;;;;;;;72.03;10.53;;;;;;;;;;5032087;28;20465;-69
2024/03/14 04:20:58;;;;;;;63.40;9.60;;;;;;;;;;5034347;28;20448;-69
2024/03/14 04:23:25;;;;;;;72.53;10.37;;;;;;;;;;5034424;28;20455;-69
2024/03/14 04:25:54;;;;;;;80.23;11.57;;;;;;;;;;5027404;28;20449;-69
2024/03/14 04:28:23;;;;;;;74.17;11.20;;;;;;;;;;5014271;28;20841;-69
2024/03/14 04:30:50;;;;;;;69.37;10.73;;;;;;;;;;5013995;28;20512;-69
2024/03/14 04:33:18;;;;;;;64.10;9.87;;;;;;;;;;5032559;28;20484;-69
2024/03/14 04:35:46;;;;;;;67.40;11.20;;;;;;;;;;5034117;28;20445;-69
2024/03/14 04:38:13;;;;;;;63.93;10.10;;;;;;;;;;5033673;28;20473;-69
2024/03/14 04:40:40;;;;;;;74.60;11.23;;;;;;;;;;5028822;28;20474;-70
2024/03/14 04:43:08;;;;;;;65.30;10.07;;;;;;;;;;5014622;28;20447;-70
2024/03/14 04:45:35;;;;;;;64.80;10.10;;;;;;;;;;5021430;28;20471;-69
2024/03/14 04:48:05;;;;;;;64.53;9.27;;;;;;;;;;5013820;28;20467;-70
2024/03/14 04:50:32;;;;;;;66.20;11.00;;;;;;;;;;5018468;28;20488;-70
2024/03/14 04:52:59;;;;;;;64.40;10.87;;;;;;;;;;5033933;28;20585;-71
2024/03/14 04:55:27;;;;;;;64.60;10.67;;;;;;;;;;5033986;28;20455;-70
2024/03/14 04:57:54;;;;;;;65.47;11.07;;;;;;;;;;5018720;28;20531;-70
2024/03/14 05:00:21;;;;;;;64.93;10.60;;;;;;;;;;5013975;28;20460;-71
2024/03/14 05:02:49;;;;;;;65.17;10.03;;;;;;;;;;5013975;28;20475;-71
2024/03/14 05:05:16;;;;;;;66.07;9.90;;;;;;;;;;5023503;28;20486;-71
2024/03/14 05:07:44;;;;;;;64.77;10.63;;;;;;;;;;5033723;28;20488;-71
2024/03/14 05:10:14;;;;;;;62.80;10.27;;;;;;;;;;5033269;28;20487;-70
2024/03/14 05:12:41;;;;;;;61.97;9.00;;;;;;;;;;5028530;28;20869;-71
2024/03/14 05:15:09;;;;;;;63.20;9.77;;;;;;;;;;5030796;28;20456;-71
2024/03/14 05:17:37;;;;;;;65.03;11.30;;;;;;;;;;5020887;28;20480;-71
2024/03/14 05:20:05;;;;;;;64.00;10.33;;;;;;;;;;5013672;28;20451;-71
2024/03/14 05:22:32;;;;;;;63.53;9.90;;;;;;;;;;5005690;28;20453;-71
2024/03/14 05:25:04;;;;;;;62.80;9.40;;;;;;;;;;5013478;28;20460;-71
2024/03/14 05:27:31;;;;;;;63.80;9.83;;;;;;;;;;5013390;28;20489;-70
2024/03/14 05:29:58;;;;;;;62.70;9.20;;;;;;;;;;5013052;28;20573;-70
2024/03/14 05:32:28;;;;;;;62.30;8.77;;;;;;;;;;5013133;28;20457;-71
2024/03/14 05:34:55;;;;;;;63.10;9.20;;;;;;;;;;5013215;28;20938;-70
2024/03/14 05:37:22;;;;;;;63.50;8.90;;;;;;;;;;5012668;28;20485;-71
2024/03/14 05:39:49;;;;;;;64.00;9.63;;;;;;;;;;5018927;28;20499;-71
2024/03/14 05:42:18;;;;;;;63.00;9.00;;;;;;;;;;5023545;28;20540;-70
2024/03/14 05:44:47;;;;;;;63.20;9.77;;;;;;;;;;5018804;28;21012;-70
2024/03/14 05:47:15;;;;;;;62.80;9.40;;;;;;;;;;5023308;28;20473;-70
2024/03/14 05:49:43;;;;;;;61.93;9.20;;;;;;;;;;5012947;28;20487;-71
2024/03/14 05:52:11;;;;;;;63.10;9.83;;;;;;;;;;5012888;28;20456;-71
2024/03/14 05:54:38;;;;;;;62.83;9.33;;;;;;;;;;5012982;28;20455;-71
2024/03/14 05:57:05;;;;;;;64.10;10.00;;;;;;;;;;5029320;28;20471;-71
2024/03/14 05:59:36;;;;;;;62.43;9.67;;;;;;;;;;5021013;28;20472;-71
2024/03/14 06:02:03;;;;;;;64.97;10.20;;;;;;;;;;5012862;28;21027;-69
2024/03/14 06:04:30;;;;;;;62.97;9.77;;;;;;;;;;5023885;28;20449;-71
2024/03/14 06:06:58;;;;;;;62.80;9.60;;;;;;;;;;5032562;28;20474;-71
2024/03/14 06:09:32;;;;;;;62.90;9.50;;;;;;;;;;5013595;28;20460;-71
2024/03/14 06:11:59;;;;;;;61.47;9.47;;;;;;;;;;5012522;28;20493;-71
2024/03/14 06:14:28;;;;;;;65.47;10.50;;;;;;;;;;5012467;28;20933;-70
2024/03/14 06:16:55;;;;;;;64.90;10.83;;;;;;;;;;5012402;28;20481;-70
2024/03/14 06:19:22;;;;;;;65.03;10.90;;;;;;;;;;5014578;28;20458;-70
2024/03/14 06:21:50;;;;;;;65.00;10.17;;;;;;;;;;5018014;28;20528;-71
2024/03/14 06:24:17;;;;;;;64.70;10.73;;;;;;;;;;5012341;28;20465;-71
2024/03/14 06:26:45;;;;;;;66.00;11.30;;;;;;;;;;5016955;28;20479;-70
2024/03/14 06:29:12;;;;;;;64.50;10.23;;;;;;;;;;5031402;28;20456;-70
2024/03/14 06:31:41;;;;;;;63.67;10.37;;;;;;;;;;5012098;28;20676;-71
2024/03/14 06:34:09;;;;;;;67.20;11.70;;;;;;;;;;5020438;28;20454;-71
2024/03/14 06:36:37;;;;;;;70.50;12.07;;;;;;;;;;5031546;28;20505;-70
2024/03/14 06:39:07;;;;;;;65.57;10.67;;;;;;;;;;5024249;28;20457;-71
2024/03/14 06:41:34;;;;;;;66.90;11.03;;;;;;;;;;5003422;28;20441;-70
2024/03/14 06:44:02;;;;;;;64.17;10.40;;;;;;;;;;5011836;28;20941;-70
2024/03/14 06:46:29;;;;;;;67.40;11.80;;;;;;;;;;5011489;28;21043;-71
2024/03/14 06:48:56;;;;;;;67.10;10.90;;;;;;;;;;5026234;28;20475;-71
2024/03/14 06:51:24;;;;;;;66.27;11.50;;;;;;;;;;5031227;28;20572;-70
2024/03/14 06:53:52;;;;;;;68.67;11.47;;;;;;;;;;5031440;28;20535;-69
2024/03/14 06:56:19;;;;;;;65.57;11.00;;;;;;;;;;5029694;28;20828;-69
2024/03/14 06:58:49;;;;;;;66.20;10.70;;;;;;;;;;5011576;28;20819;-69
2024/03/14 07:01:17;;;;;;;67.50;11.40;;;;;;;;;;5011573;28;20455;-69
2024/03/14 07:03:45;;;;;;;67.40;12.50;;;;;;;;;;5011519;28;20961;-69
2024/03/14 07:06:14;;;;;;;70.20;13.10;;;;;;;;;;5011353;28;20457;-70
2024/03/14 07:08:43;;;;;;;66.23;11.20;;;;;;;;;;5011372;28;20911;-69
2024/03/14 07:11:11;;;;;;;67.97;12.77;;;;;;;;;;5011151;28;20541;-69
2024/03/14 07:13:39;;;;;;;66.60;11.50;;;;;;;;;;5011196;28;20541;-69
2024/03/14 07:16:09;;;;;;;66.27;11.13;;;;;;;;;;5018895;28;20449;-69
2024/03/14 07:18:36;;;;;;;66.30;10.53;;;;;;;;;;5019318;28;20466;-69
2024/03/14 07:21:04;;;;;;;64.00;10.73;;;;;;;;;;5011360;28;20497;-69
2024/03/14 07:23:33;;;;;;;70.47;12.17;;;;;;;;;;5011058;28;20573;-69
2024/03/14 07:26:02;;;;;;;64.00;9.40;;;;;;;;;;5011190;28;20476;-70
2024/03/14 07:28:31;;;;;;;64.77;11.10;;;;;;;;;;5013698;28;20474;-70
2024/03/14 07:30:58;;;;;;;63.77;10.27;;;;;;;;;;5030792;28;20489;-70
2024/03/14 07:33:26;;;;;;;63.80;10.13;;;;;;;;;;5030725;28;20536;-70
2024/03/14 07:35:54;;;;;;;65.47;10.47;;;;;;;;;;5030798;28;20453;-70
2024/03/14 07:38:27;;;;;;;64.80;10.27;;;;;;;;;;5030493;28;20477;-70
2024/03/14 07:40:55;;;;;;;66.20;11.57;;;;;;;;;;5027043;28;20478;-70
2024/03/14 07:43:22;;;;;;;66.30;11.50;;;;;;;;;;5020241;28;20829;-70
2024/03/14 07:45:49;;;;;;;64.30;10.10;;;;;;;;;;5015855;28;20818;-69
2024/03/14 07:48:17;;;;;;;64.37;10.60;;;;;;;;;;5019321;28;20834;-69
2024/03/14 07:50:45;;;;;;;65.50;10.40;;;;;;;;;;5025967;28;20559;-70
2024/03/14 07:53:12;;;;;;;65.30;10.00;;;;;;;;;;5018567;28;20516;-70
2024/03/14 07:55:39;;;;;;;62.67;9.13;;;;;;;;;;5022705;28;20472;-70
2024/03/14 07:58:08;;;;;;;61.70;9.43;;;;;;;;;;5015104;28;20549;-70
2024/03/14 08:00:36;;;;;;;63.43;9.53;;;;;;;;;;5010711;28;20467;-70
2024/03/14 08:03:03;;;;;;;64.20;9.30;;;;;;;;;;5017520;28;20893;-69
2024/03/14 08:05:31;;;;;;;64.30;9.10;;;;;;;;;;5019558;28;20469;-69
2024/03/14 08:08:01;;;;;;;63.90;9.00;;;;;;;;;;5016687;28;20469;-69
2024/03/14 08:10:28;;;;;;;69.30;9.27;;;;;;;;;;5013883;28;20446;-70
2024/03/14 08:12:57;;;;;;;64.47;10.00;;;;;;;;;;5030385;28;20445;-69
2024/03/14 08:15:35;;;;;;;62.80;8.70;;;;;;;;;;5029922;28;20448;-69
2024/03/14 08:18:04;;;;;;;64.27;9.50;;;;;;;;;;5023327;28;20849;-69
2024/03/14 08:20:36;;;;;;;63.37;8.70;;;;;;;;;;5010547;28;20543;-69
2024/03/14 08:23:04;;;;;;;61.87;8.10;;;;;;;;;;5010725;28;20458;-70
2024/03/14 08:25:31;;;;;;;62.50;9.33;;;;;;;;;;5010688;28;20465;-70
2024/03/14 08:27:59;;;;;;;62.47;8.60;;;;;;;;;;5016570;28;20551;-69
2024/03/14 08:30:27;;;;;;;61.40;7.87;;;;;;;;;;5030342;28;20815;-69
2024/03/14 08:32:55;;;;;;;61.37;8.10;;;;;;;;;;5029901;28;20539;-69
2024/03/14 08:35:23;;;;;;;61.70;8.23;;;;;;;;;;5013646;28;20548;-69
2024/03/14 08:37:50;;;;;;;61.27;7.57;;;;;;;;;;5030175;28;20898;-70
2024/03/14 08:40:17;;;;;;;61.97;8.60;;;;;;;;;;5021830;28;20969;-70
2024/03/14 08:42:45;;;;;;;73.40;9.10;;;;;;;;;;5014722;28;20937;-70
2024/03/14 08:45:14;;;;;;;63.47;8.63;;;;;;;;;;5021878;28;20453;-70
2024/03/14 08:47:42;;;;;;;62.97;8.83;;;;;;;;;;5018626;28;20549;-70
2024/03/14 08:50:10;;;;;;;61.50;7.63;;;;;;;;;;5010483;28;20451;-70
2024/03/14 08:52:38;;;;;;;60.50;7.57;;;;;;;;;;5010202;28;21018;-70
2024/03/14 08:55:23;;;;;;;60.17;6.73;;;;;;;;;;5009764;28;20898;-70
2024/03/14 08:57:51;;;;;;;61.03;7.03;;;;;;;;;;5008227;28;20664;-70
2024/03/14 09:00:21;;;;;;;62.77;7.57;;;;;;;;;;5013790;28;20482;-70
2024/03/14 09:02:48;;;;;;;63.17;6.73;;;;;;;;;;5017779;28;20446;-70
2024/03/14 09:05:16;;;;;;;60.20;7.90;;;;;;;;;;5012923;28;20457;-70
2024/03/14 09:07:43;;;;;;;61.67;6.47;;;;;;;;;;5033237;28;20473;-70
2024/03/14 09:10:16;;;;;;;59.70;6.53;;;;;;;;;;5017733;28;20817;-70
2024/03/14 09:12:45;;;;;;;60.77;6.73;;;;;;;;;;5017513;28;20520;-70
2024/03/14 09:15:12;;;;;;;61.07;7.07;;;;;;;;;;5017751;28;20819;-70
2024/03/14 09:17:40;;;;;;;60.57;7.03;;;;;;;;;;5029701;28;20501;-70
2024/03/14 09:20:08;;;;;;;60.17;6.90;;;;;;;;;;5013583;28;20598;-71
2024/03/14 09:22:36;;;;;;;58.90;5.87;;;;;;;;;;5013193;28;20546;-70
2024/03/14 09:25:04;;;;;;;59.00;6.23;;;;;;;;;;5013469;28;21035;-69
2024/03/14 09:27:32;;;;;;;61.07;7.03;;;;;;;;;;5015067;28;20466;-69
2024/03/14 09:30:00;;;;;;;59.77;6.63;;;;;;;;;;5019267;28;20561;-70
2024/03/14 09:32:29;;;;;;;60.30;5.57;;;;;;;;;;5014531;28;20490;-70
2024/03/14 09:34:58;;;;;;;59.57;5.73;;;;;;;;;;5027861;28;20935;-70
2024/03/14 09:37:26;;;;;;;59.23;5.33;;;;;;;;;;5012729;28;20486;-70
2024/03/14 09:39:57;;;;;;;59.40;4.50;;;;;;;;;;5026166;28;20536;-70
2024/03/14 09:42:26;;;;;;;57.63;4.33;;;;;;;;;;5015860;28;20505;-70
2024/03/14 09:44:53;;;;;;;57.00;4.40;;;;;;;;;;5013142;28;20457;-70
2024/03/14 09:47:21;;;;;;;56.80;4.40;;;;;;;;;;5029359;28;20560;-70
2024/03/14 09:49:48;;;;;;;57.53;4.13;;;;;;;;;;5028420;28;20505;-71
2024/03/14 09:52:15;;;;;;;57.57;4.10;;;;;;;;;;5012912;28;20513;-70
2024/03/14 09:54:42;;;;;;;58.27;4.33;;;;;;;;;;5032702;28;20450;-70
2024/03/14 09:57:10;;;;;;;57.17;3.90;;;;;;;;;;5032531;28;20499;-70
2024/03/14 09:59:37;;;;;;;57.90;4.10;;;;;;;;;;5022065;28;20878;-70
2024/03/14 10:02:06;;;;;;;57.40;3.80;;;;;;;;;;5021211;28;20889;-70
2024/03/14 10:04:33;;;;;;;57.17;3.63;;;;;;;;;;5012607;28;20804;-70
2024/03/14 10:07:00;;;;;;;57.13;4.07;;;;;;;;;;5018128;28;20473;-70
2024/03/14 10:09:29;;;;;;;56.77;3.37;;;;;;;;;;5032605;28;20796;-70
2024/03/14 10:12:01;;;;;;;59.87;5.03;;;;;;;;;;5032287;28;20488;-70
2024/03/14 10:14:32;;;;;;;57.50;4.03;;;;;;;;;;5032594;28;20449;-70
2024/03/14 10:16:59;;;;;;;58.00;3.67;;;;;;;;;;5014059;28;20524;-70
2024/03/14 10:19:30;;;;;;;59.60;3.80;;;;;;;;;;5014581;28;20533;-70
2024/03/14 10:21:57;;;;;;;57.00;3.30;;;;;;;;;;5014704;28;20469;-71
2024/03/14 10:24:27;;;;;;;56.37;2.90;;;;;;;;;;5013258;28;20442;-70
2024/03/14 10:26:55;;;;;;;56.80;3.27;;;;;;;;;;5020397;28;20470;-71
2024/03/14 10:29:22;;;;;;;56.40;3.10;;;;;;;;;;5011999;28;20454;-71
2024/03/14 10:31:49;;;;;;;56.03;2.73;;;;;;;;;;5012232;28;20605;-71
2024/03/14 10:34:17;;;;;;;56.47;2.80;;;;;;;;;;5012278;28;20446;-71
2024/03/14 10:36:44;;;;;;;59.80;3.20;;;;;;;;;;5015076;28;20482;-71
2024/03/14 10:39:13;;;;;;;56.47;3.17;;;;;;;;;;5016597;28;20451;-71
2024/03/14 10:41:41;;;;;;;56.60;3.17;;;;;;;;;;5030934;28;20890;-71
2024/03/14 10:44:08;;;;;;;56.33;3.10;;;;;;;;;;5025322;28;20990;-71
2024/03/14 10:46:37;;;;;;;56.90;3.20;;;;;;;;;;5019627;28;21020;-71
2024/03/14 10:49:04;;;;;;;56.07;2.87;;;;;;;;;;5012173;28;20447;-71
2024/03/14 10:51:31;;;;;;;57.20;2.57;;;;;;;;;;5021176;28;20493;-71
2024/03/14 10:53:59;;;;;;;56.17;2.90;;;;;;;;;;5018046;28;20446;-69
2024/03/14 10:56:27;;;;;;;59.03;2.60;;;;;;;;;;5019241;28;20457;-70
2024/03/14 10:58:54;;;;;;;56.80;2.77;;;;;;;;;;5016352;28;21062;-70
2024/03/14 11:01:21;;;;;;;56.27;2.83;;;;;;;;;;5031489;28;20793;-70
2024/03/14 11:03:50;;;;;;;56.20;2.90;;;;;;;;;;5031203;28;20453;-70
2024/03/14 11:06:18;;;;;;;55.90;2.60;;;;;;;;;;5031147;28;20833;-71
2024/03/14 11:08:46;;;;;;;63.23;2.80;;;;;;;;;;5014877;28;20441;-71
2024/03/14 11:11:14;;;;;;;56.30;2.40;;;;;;;;;;5030883;28;20454;-71
2024/03/14 11:13:44;;;;;;;56.63;2.33;;;;;;;;;;5012240;28;20497;-71
2024/03/14 11:16:13;;;;;;;56.37;2.30;;;;;;;;;;5018088;28;20442;-70
2024/03/14 11:18:41;;;;;;;55.60;2.50;;;;;;;;;;5020422;28;20577;-70
2024/03/14 11:21:09;;;;;;;56.00;2.57;;;;;;;;;;5011277;28;20843;-71
2024/03/14 11:23:37;;;;;;;56.30;3.00;;;;;;;;;;5019342;28;20457;-71
2024/03/14 11:26:05;;;;;;;56.27;2.60;;;;;;;;;;5025436;28;20437;-71
2024/03/14 11:28:32;;;;;;;55.90;2.20;;;;;;;;;;5012663;28;20479;-71
2024/03/14 11:31:00;;;;;;;55.90;2.53;;;;;;;;;;5011068;28;20446;-69
2024/03/14 11:33:27;;;;;;;57.10;2.80;;;;;;;;;;5019772;28;20493;-70
2024/03/14 11:35:56;;;;;;;56.00;2.63;;;;;;;;;;5026620;28;20454;-70
2024/03/14 11:38:23;;;;;;;55.80;2.40;;;;;;;;;;5018766;28;20473;-70
2024/03/14 11:40:51;;;;;;;55.67;2.30;;;;;;;;;;5006869;28;20806;-70
2024/03/14 11:43:18;;;;;;;59.20;2.83;;;;;;;;;;5030821;28;20438;-70
2024/03/14 11:45:45;;;;;;;55.87;2.40;;;;;;;;;;5011402;28;20496;-70
2024/03/14 11:48:15;;;;;;;55.80;2.40;;;;;;;;;;5018915;28;20496;-70
2024/03/14 11:50:43;;;;;;;56.00;2.70;;;;;;;;;;5021551;28;20946;-70
2024/03/14 11:53:11;;;;;;;55.90;2.50;;;;;;;;;;5016353;28;20494;-70
2024/03/14 11:55:38;;;;;;;57.10;2.50;;;;;;;;;;5020796;28;20515;-70
2024/03/14 11:58:08;;;;;;;55.47;2.13;;;;;;;;;;5022021;28;20469;-70
2024/03/14 12:00:35;;;;;;;56.00;2.40;;;;;;;;;;5030297;28;20452;-70
2024/03/14 12:03:02;;;;;;;56.10;2.43;;;;;;;;;;5030180;28;20446;-70
2024/03/14 12:05:29;;;;;;;55.67;2.30;;;;;;;;;;5029725;28;20541;-70
2024/03/14 12:07:58;;;;;;;56.50;2.80;;;;;;;;;;5010520;28;20483;-70
2024/03/14 12:10:25;;;;;;;56.03;2.27;;;;;;;;;;5010614;28;20533;-70
2024/03/14 12:12:54;;;;;;;56.30;2.00;;;;;;;;;;5010704;28;20477;-70
2024/03/14 12:15:21;;;;;;;56.47;2.07;;;;;;;;;;5026185;28;20445;-71
2024/03/14 12:17:55;;;;;;;55.57;2.00;;;;;;;;;;5019251;28;20469;-71
2024/03/14 12:20:23;;;;;;;55.47;1.97;;;;;;;;;;5010631;28;20458;-70
2024/03/14 12:22:51;;;;;;;56.37;2.13;;;;;;;;;;5002481;28;20810;-70
2024/03/14 12:25:20;;;;;;;56.10;1.97;;;;;;;;;;5018570;28;20450;-70
2024/03/14 12:27:48;;;;;;;55.23;1.80;;;;;;;;;;5005051;28;20547;-70
2024/03/14 12:30:16;;;;;;;55.70;1.90;;;;;;;;;;5018957;28;20450;-70
2024/03/14 12:32:44;;;;;;;55.40;1.90;;;;;;;;;;5021466;28;20851;-70
2024/03/14 12:35:13;;;;;;;55.73;2.10;;;;;;;;;;5023970;28;20545;-70
2024/03/14 12:37:40;;;;;;;55.57;1.90;;;;;;;;;;5025941;28;20484;-71
2024/03/14 12:40:08;;;;;;;55.27;1.97;;;;;;;;;;5012852;28;20448;-70
2024/03/14 12:42:36;;;;;;;55.20;1.77;;;;;;;;;;5012867;28;20543;-71
2024/03/14 12:45:04;;;;;;;55.73;2.10;;;;;;;;;;5020822;28;20449;-71
2024/03/14 12:47:31;;;;;;;55.27;1.80;;;;;;;;;;5007341;28;20504;-71
2024/03/14 12:49:59;;;;;;;55.57;1.80;;;;;;;;;;5017301;28;20450;-71
2024/03/14 12:52:27;;;;;;;54.97;1.87;;;;;;;;;;5022305;28;20892;-71
2024/03/14 12:54:54;;;;;;;55.57;1.90;;;;;;;;;;5005801;28;20799;-71
2024/03/14 12:57:22;;;;;;;55.20;2.00;;;;;;;;;;5012945;28;20967;-71
2024/03/14 12:59:49;;;;;;;55.60;1.93;;;;;;;;;;5016792;28;20456;-70
2024/03/14 13:02:20;;;;;;;56.50;1.90;;;;;;;;;;5033635;28;20450;-70
2024/03/14 13:04:47;;;;;;;54.83;1.90;;;;;;;;;;5022585;28;20457;-70
2024/03/14 13:07:18;;;;;;;55.07;1.80;;;;;;;;;;5013329;28;20496;-70
2024/03/14 13:09:47;;;;;;;55.07;1.80;;;;;;;;;;5032091;28;20455;-70
2024/03/14 13:12:18;;;;;;;54.77;1.80;;;;;;;;;;5033285;28;20861;-70
2024/03/14 13:14:49;;;;;;;55.90;1.90;;;;;;;;;;5033118;28;20445;-71
2024/03/14 13:17:16;;;;;;;54.93;1.80;;;;;;;;;;5033093;28;20495;-71
2024/03/14 13:19:44;;;;;;;55.60;1.80;;;;;;;;;;5014955;28;20810;-71
2024/03/14 13:22:13;;;;;;;55.40;2.00;;;;;;;;;;5013329;28;20532;-70
2024/03/14 13:24:40;;;;;;;55.40;1.80;;;;;;;;;;5023239;28;20454;-71
2024/03/14 13:27:08;;;;;;;54.77;1.80;;;;;;;;;;5032722;28;21014;-70
2024/03/14 13:29:36;;;;;;;55.57;2.27;;;;;;;;;;5032827;28;20548;-70
2024/03/14 13:32:03;;;;;;;54.60;1.70;;;;;;;;;;5032596;28;20484;-70
2024/03/14 13:34:33;;;;;;;54.87;1.63;;;;;;;;;;5032717;28;20449;-70
2024/03/14 13:37:00;;;;;;;54.80;1.80;;;;;;;;;;5032443;28;20542;-70
2024/03/14 13:39:28;;;;;;;55.37;1.87;;;;;;;;;;5017048;28;20532;-70
2024/03/14 13:41:57;;;;;;;55.40;1.97;;;;;;;;;;5016624;28;20452;-71
2024/03/14 13:44:25;;;;;;;55.40;1.77;;;;;;;;;;5032747;28;20522;-71
2024/03/14 13:46:52;;;;;;;56.50;2.17;;;;;;;;;;5021131;28;20560;-70
2024/03/14 13:49:19;;;;;;;56.73;2.00;;;;;;;;;;5012942;28;20451;-70
2024/03/14 13:51:47;;;;;;;56.00;2.20;;;;;;;;;;5023116;28;20536;-70
2024/03/14 13:54:23;;;;;;;56.00;2.10;;;;;;;;;;5032641;28;20576;-71
2024/03/14 13:56:53;;;;;;;55.70;2.00;;;;;;;;;;5032444;28;20819;-70
2024/03/14 13:59:21;;;;;;;55.60;2.30;;;;;;;;;;5032402;28;20453;-70
2024/03/14 14:01:48;;;;;;;55.47;1.90;;;;;;;;;;5032223;28;20446;-70
2024/03/14 14:04:17;;;;;;;56.57;2.00;;;;;;;;;;5032306;28;20440;-70
2024/03/14 14:06:43;;;;;;;55.17;2.00;;;;;;;;;;5032064;28;20473;-70
2024/03/14 14:09:11;;;;;;;55.97;2.37;;;;;;;;;;5032649;28;20454;-71
2024/03/14 14:11:39;;;;;;;55.27;2.20;;;;;;;;;;5032169;28;20448;-70
2024/03/14 14:14:07;;;;;;;55.80;2.00;;;;;;;;;;5032126;28;20490;-70
2024/03/14 14:16:36;;;;;;;56.53;2.23;;;;;;;;;;5031715;28;20458;-70
2024/03/14 14:19:06;;;;;;;55.53;1.93;;;;;;;;;;5019787;28;20461;-70
2024/03/14 14:21:35;;;;;;;56.27;2.03;;;;;;;;;;5029012;28;20454;-70
2024/03/14 14:24:02;;;;;;;55.87;2.10;;;;;;;;;;5019531;28;20497;-70
2024/03/14 14:26:30;;;;;;;55.57;1.87;;;;;;;;;;5019894;28;20544;-70
2024/03/14 14:28:57;;;;;;;55.20;2.00;;;;;;;;;;5020105;28;20497;-70